Time;durP1;ratioP1;P1;durP2;ratioP2;P2;SDS_P1;SDS_P2;PMS_P1;PMS_P2;Temp;Humidity;BMP_temperature;BMP_pressure;BME280_temperature;BME280_humidity;BME280_pressure;Samples;Min_cycle;Max_cycle;Signal;HPM_P1;HPM_P2
2024/02/19 00:01:05;;;;;;;30.67;4.72;;;;;;;6.50;100.00;102849.47;5054938;28;20029;-77
2024/02/19 00:03:31;;;;;;;38.45;4.60;;;;;;;6.52;100.00;102860.00;5055472;28;20120;-78
2024/02/19 00:05:57;;;;;;;32.47;4.38;;;;;;;6.50;100.00;102848.63;5054805;28;20029;-77
2024/02/19 00:08:23;;;;;;;35.00;5.65;;;;;;;6.47;100.00;102854.88;5053553;28;20033;-76
2024/02/19 00:10:48;;;;;;;39.22;4.47;;;;;;;6.46;100.00;102853.16;5054453;28;20062;-75
2024/02/19 00:13:13;;;;;;;35.60;4.38;;;;;;;6.47;100.00;102861.97;5053647;28;20021;-77
2024/02/19 00:15:39;;;;;;;33.35;4.45;;;;;;;6.49;100.00;102861.00;5053591;28;20475;-77
2024/02/19 00:18:06;;;;;;;28.27;4.32;;;;;;;6.55;100.00;102859.84;5053523;28;20528;-77
2024/02/19 00:20:31;;;;;;;43.10;4.80;;;;;;;6.57;100.00;102868.59;5054598;28;20033;-76
2024/02/19 00:22:57;;;;;;;33.08;4.43;;;;;;;6.60;100.00;102863.19;5054778;28;20037;-77
2024/02/19 00:25:22;;;;;;;32.53;3.60;;;;;;;6.62;100.00;102865.78;5053253;28;20112;-77
2024/02/19 00:27:49;;;;;;;33.92;4.57;;;;;;;6.63;100.00;102863.06;5053971;28;20033;-77
2024/02/19 00:30:14;;;;;;;27.88;4.47;;;;;;;6.63;100.00;102868.34;5052913;28;20025;-75
2024/02/19 00:32:40;;;;;;;45.22;5.05;;;;;;;6.68;100.00;102878.75;5054360;28;20029;-76
2024/02/19 00:35:05;;;;;;;44.33;4.65;;;;;;;6.67;100.00;102877.00;5053674;28;20045;-75
2024/02/19 00:37:31;;;;;;;35.65;4.93;;;;;;;6.70;100.00;102885.69;5052806;28;20037;-77
2024/02/19 00:39:57;;;;;;;42.85;4.75;;;;;;;6.72;100.00;102883.00;5052740;28;20040;-76
2024/02/19 00:42:23;;;;;;;39.17;4.50;;;;;;;6.70;100.00;102872.47;5054212;28;20033;-76
2024/02/19 00:44:49;;;;;;;36.97;4.68;;;;;;;6.71;100.00;102886.53;5052759;28;20466;-77
2024/02/19 00:47:14;;;;;;;41.25;4.85;;;;;;;6.73;100.00;102884.69;5054075;28;20033;-77
2024/02/19 00:49:39;;;;;;;34.15;4.40;;;;;;;6.71;100.00;102876.81;5053685;28;20044;-77
2024/02/19 00:52:05;;;;;;;36.20;3.88;;;;;;;6.75;100.00;102876.69;5052765;28;20033;-77
2024/02/19 00:54:30;;;;;;;38.17;5.95;;;;;;;6.78;100.00;102884.53;5052821;28;20394;-82
2024/02/19 00:56:56;;;;;;;26.80;4.18;;;;;;;6.76;100.00;102881.91;5054429;28;20413;-76
2024/02/19 00:59:21;;;;;;;31.95;5.20;;;;;;;6.74;100.00;102877.63;5053977;28;20037;-76
2024/02/19 01:01:47;;;;;;;35.13;3.90;;;;;;;6.77;100.00;102874.84;5053844;28;20568;-76
2024/02/19 01:04:12;;;;;;;38.60;4.50;;;;;;;6.78;100.00;102877.44;5054159;28;20432;-77
2024/02/19 01:06:38;;;;;;;26.08;3.15;;;;;;;6.79;100.00;102875.63;5035890;28;20394;-76
2024/02/19 01:09:04;;;;;;;27.85;4.30;;;;;;;6.71;100.00;102884.75;5052386;28;20074;-77
2024/02/19 01:11:30;;;;;;;30.88;4.32;;;;;;;6.75;100.00;102869.63;5053794;28;20029;-76
2024/02/19 01:13:55;;;;;;;27.65;3.60;;;;;;;6.76;100.00;102879.25;5054179;28;20029;-77
2024/02/19 01:16:21;;;;;;;34.78;5.32;;;;;;;6.75;100.00;102874.91;5053598;28;20039;-76
2024/02/19 01:18:46;;;;;;;36.05;5.00;;;;;;;6.74;100.00;102874.97;5053508;28;20139;-76
2024/02/19 01:21:11;;;;;;;36.20;5.07;;;;;;;6.74;100.00;102881.13;5053538;28;20033;-76
2024/02/19 01:23:37;;;;;;;24.35;3.85;;;;;;;6.77;100.00;102885.44;5053526;28;20040;-77
2024/02/19 01:26:02;;;;;;;26.98;3.30;;;;;;;6.79;100.00;102881.81;5053527;28;20108;-76
2024/02/19 01:28:27;;;;;;;26.27;3.72;;;;;;;6.82;100.00;102881.69;5053960;28;20059;-75
2024/02/19 01:30:53;;;;;;;29.15;3.90;;;;;;;6.82;100.00;102873.75;5053323;28;20029;-76
2024/02/19 01:33:21;;;;;;;26.00;3.97;;;;;;;6.82;100.00;102860.50;5052554;28;20108;-76
2024/02/19 01:35:46;;;;;;;31.90;4.53;;;;;;;6.85;100.00;102859.50;5053070;28;20049;-75
2024/02/19 01:38:12;;;;;;;24.80;4.45;;;;;;;6.86;100.00;102877.09;5053224;28;20033;-74
2024/02/19 01:40:37;;;;;;;26.60;4.22;;;;;;;6.85;100.00;102868.31;5052633;28;20360;-80
2024/02/19 01:43:05;;;;;;;24.38;3.42;;;;;;;6.85;100.00;102876.25;5053160;28;20035;-77
2024/02/19 01:45:31;;;;;;;30.45;3.88;;;;;;;6.88;100.00;102864.66;5053109;28;20029;-77
2024/02/19 01:47:59;;;;;;;28.60;3.92;;;;;;;6.89;100.00;102861.09;5053023;28;20033;-76
2024/02/19 01:50:28;;;;;;;26.35;3.53;;;;;;;6.90;100.00;102865.47;5034881;28;20215;-76
2024/02/19 01:52:55;;;;;;;24.27;3.88;;;;;;;6.88;100.00;102868.19;5051744;28;20031;-77
2024/02/19 01:55:21;;;;;;;19.88;3.13;;;;;;;6.91;100.00;102875.09;5053511;28;20471;-75
2024/02/19 01:57:48;;;;;;;23.80;3.80;;;;;;;6.89;100.00;102866.38;5052400;28;20128;-75
2024/02/19 02:00:17;;;;;;;33.35;3.92;;;;;;;6.89;100.00;102863.75;5053280;28;20113;-76
2024/02/19 02:02:42;;;;;;;28.55;4.07;;;;;;;6.88;100.00;102860.25;5053720;28;20036;-77
2024/02/19 02:05:10;;;;;;;28.65;4.13;;;;;;;6.89;100.00;102856.66;5053039;28;20033;-76
2024/02/19 02:07:36;;;;;;;22.38;2.85;;;;;;;6.90;100.00;102846.94;5053125;28;20048;-76
2024/02/19 02:10:04;;;;;;;24.85;3.33;;;;;;;6.92;100.00;102847.72;5053027;28;20118;-76
2024/02/19 02:12:30;;;;;;;24.92;3.78;;;;;;;6.92;100.00;102847.72;5052974;28;20037;-74
2024/02/19 02:14:55;;;;;;;30.95;4.40;;;;;;;6.90;100.00;102846.94;5051893;28;20037;-76
2024/02/19 02:17:21;;;;;;;25.80;3.22;;;;;;;6.92;100.00;102853.03;5052600;28;20585;-77
2024/02/19 02:19:46;;;;;;;29.08;4.43;;;;;;;6.93;100.00;102851.25;5052882;28;20492;-77
2024/02/19 02:22:13;;;;;;;28.48;4.68;;;;;;;6.95;100.00;102852.03;5051417;28;20036;-75
2024/02/19 02:24:39;;;;;;;25.73;3.55;;;;;;;6.98;100.00;102849.25;5052710;28;20474;-75
2024/02/19 02:27:04;;;;;;;25.15;3.67;;;;;;;7.00;100.00;102844.75;5052699;28;20071;-76
2024/02/19 02:29:30;;;;;;;25.80;3.42;;;;;;;7.00;100.00;102845.63;5053011;28;20378;-76
2024/02/19 02:31:55;;;;;;;21.20;3.92;;;;;;;7.03;100.00;102847.25;5053122;28;20065;-77
2024/02/19 02:34:22;;;;;;;23.50;2.83;;;;;;;7.07;100.00;102840.91;5052194;28;20029;-74
2024/02/19 02:36:48;;;;;;;19.77;2.72;;;;;;;7.07;100.00;102833.81;5053273;28;20045;-77
2024/02/19 02:39:14;;;;;;;19.13;2.72;;;;;;;7.06;100.00;102837.41;5052517;28;20068;-76
2024/02/19 02:41:39;;;;;;;17.45;2.75;;;;;;;7.05;100.00;102838.34;5051582;28;20383;-76
2024/02/19 02:44:04;;;;;;;21.58;3.22;;;;;;;7.05;100.00;102833.03;5052572;28;20025;-75
2024/02/19 02:46:30;;;;;;;20.75;3.08;;;;;;;7.07;100.00;102835.63;5052197;28;20037;-74
2024/02/19 02:48:55;;;;;;;17.70;2.25;;;;;;;7.09;100.00;102827.59;5052605;28;20431;-75
2024/02/19 02:51:21;;;;;;;18.15;3.38;;;;;;;7.12;100.00;102830.13;5052609;28;20029;-75
2024/02/19 02:53:46;;;;;;;16.02;2.65;;;;;;;7.16;100.00;102829.06;5053017;28;20104;-77
2024/02/19 02:56:19;;;;;;;24.52;3.28;;;;;;;7.22;100.00;102824.34;5052588;28;20108;-76
2024/02/19 02:58:48;;;;;;;13.90;2.42;;;;;;;7.28;100.00;102819.72;5052439;28;20098;-77
2024/02/19 03:01:18;;;;;;;18.70;2.78;;;;;;;7.30;100.00;102802.84;5056205;28;20033;-76
2024/02/19 03:03:44;;;;;;;20.45;3.20;;;;;;;7.30;100.00;102810.78;5055859;28;20033;-76
2024/02/19 03:06:12;;;;;;;21.25;3.13;;;;;;;7.34;100.00;102814.13;5055901;28;20494;-75
2024/02/19 03:08:37;;;;;;;13.57;3.05;;;;;;;7.34;100.00;102804.38;5055849;28;20072;-75
2024/02/19 03:11:03;;;;;;;21.67;3.03;;;;;;;7.37;100.00;102809.53;5055643;28;20057;-76
2024/02/19 03:13:30;;;;;;;14.57;2.88;;;;;;;7.40;100.00;102806.78;5055517;28;20036;-77
2024/02/19 03:15:55;;;;;;;16.38;3.20;;;;;;;7.47;100.00;102809.16;5055678;28;20079;-75
2024/02/19 03:18:20;;;;;;;22.35;3.13;;;;;;;7.47;100.00;102809.16;5055753;28;20037;-76
2024/02/19 03:20:46;;;;;;;20.40;3.03;;;;;;;7.48;100.00;102806.44;5054482;28;20086;-75
2024/02/19 03:23:11;;;;;;;14.55;2.78;;;;;;;7.49;100.00;102802.81;5054491;28;20040;-75
2024/02/19 03:25:36;;;;;;;15.82;2.53;;;;;;;7.51;100.00;102814.22;5055561;28;20463;-75
2024/02/19 03:28:02;;;;;;;10.88;2.80;;;;;;;7.53;100.00;102792.97;5055321;28;20083;-75
2024/02/19 03:30:29;;;;;;;17.98;2.72;;;;;;;7.51;100.00;102789.50;5054186;28;20050;-76
2024/02/19 03:32:55;;;;;;;16.48;2.65;;;;;;;7.53;100.00;102792.97;5055645;28;20029;-77
2024/02/19 03:35:20;;;;;;;11.80;2.67;;;;;;;7.60;100.00;102799.69;5055128;28;20505;-76
2024/02/19 03:37:46;;;;;;;25.20;3.30;;;;;;;7.67;100.00;102797.59;5054041;28;20057;-76
2024/02/19 03:40:11;;;;;;;12.63;3.03;;;;;;;7.70;100.00;102795.69;5055219;28;20033;-76
2024/02/19 03:42:37;;;;;;;11.88;2.75;;;;;;;7.79;100.00;102804.13;5055272;28;20464;-76
2024/02/19 03:45:04;;;;;;;17.95;2.78;;;;;;;7.83;100.00;102808.34;5055579;28;20031;-77
2024/02/19 03:47:30;;;;;;;22.42;3.15;;;;;;;7.87;100.00;102805.47;5055120;28;20048;-76
2024/02/19 03:49:55;;;;;;;16.33;3.13;;;;;;;7.90;100.00;102815.94;5053979;28;20079;-77
2024/02/19 03:52:21;;;;;;;18.55;3.50;;;;;;;7.93;100.00;102807.81;5055035;28;20474;-76
2024/02/19 03:54:46;;;;;;;16.75;3.50;;;;;;;7.95;100.00;102813.91;5053775;28;20462;-76
2024/02/19 03:57:11;;;;;;;18.58;3.60;;;;;;;7.95;100.00;102800.66;5055181;28;20061;-76
2024/02/19 03:59:37;;;;;;;22.02;3.10;;;;;;;7.97;100.00;102805.88;5055237;28;20033;-76
2024/02/19 04:02:02;;;;;;;16.83;3.15;;;;;;;7.93;100.00;102797.22;5053538;28;20033;-75
2024/02/19 04:04:28;;;;;;;19.70;3.42;;;;;;;7.92;100.00;102808.75;5054887;28;20116;-76
2024/02/19 04:06:53;;;;;;;18.30;4.65;;;;;;;7.91;100.00;102804.41;5053213;28;20029;-75
2024/02/19 04:09:19;;;;;;;17.02;3.45;;;;;;;7.91;100.00;102815.00;5052888;28;20028;-76
2024/02/19 04:11:44;;;;;;;22.40;3.45;;;;;;;7.89;100.00;102821.31;5053889;28;20082;-76
2024/02/19 04:14:09;;;;;;;20.50;3.42;;;;;;;7.90;100.00;102817.72;5054888;28;20082;-77
2024/02/19 04:16:35;;;;;;;12.25;3.17;;;;;;;7.88;100.00;102814.28;5054378;28;20067;-77
2024/02/19 04:19:00;;;;;;;18.80;4.00;;;;;;;7.85;100.00;102811.78;5053541;28;20037;-76
2024/02/19 04:21:25;;;;;;;19.05;3.13;;;;;;;7.85;100.00;102814.41;5054860;28;20037;-75
2024/02/19 04:23:51;;;;;;;15.88;3.30;;;;;;;7.85;100.00;102817.06;5053131;28;20115;-77
2024/02/19 04:26:16;;;;;;;16.40;3.60;;;;;;;7.86;100.00;102827.59;5053640;28;20036;-76
2024/02/19 04:28:41;;;;;;;19.90;3.38;;;;;;;7.84;100.00;102821.53;5055038;28;20413;-76
2024/02/19 04:31:07;;;;;;;12.32;3.47;;;;;;;7.84;100.00;102824.19;5054378;28;20036;-77
2024/02/19 04:33:32;;;;;;;23.02;3.63;;;;;;;7.86;100.00;102822.31;5054423;28;20033;-76
2024/02/19 04:35:57;;;;;;;19.63;3.00;;;;;;;7.84;100.00;102828.63;5054664;28;20049;-75
2024/02/19 04:38:23;;;;;;;14.23;3.25;;;;;;;7.82;100.00;102825.19;5054460;28;20116;-75
2024/02/19 04:40:48;;;;;;;11.82;3.47;;;;;;;7.83;100.00;102821.59;5054162;28;20040;-75
2024/02/19 04:43:14;;;;;;;14.82;3.22;;;;;;;7.81;100.00;102819.03;5053739;28;20108;-75
2024/02/19 04:45:39;;;;;;;19.42;3.75;;;;;;;7.80;100.00;102814.66;5052368;28;20439;-75
2024/02/19 04:48:05;;;;;;;14.98;3.50;;;;;;;7.79;100.00;102812.91;5052706;28;20029;-75
2024/02/19 04:50:30;;;;;;;16.45;3.65;;;;;;;7.79;100.00;102802.31;5053683;28;20087;-77
2024/02/19 04:52:55;;;;;;;28.95;3.78;;;;;;;7.79;100.00;102812.06;5053998;28;20497;-75
2024/02/19 04:55:21;;;;;;;16.10;3.55;;;;;;;7.76;100.00;102806.00;5054088;28;20029;-75
2024/02/19 04:57:46;;;;;;;17.70;3.45;;;;;;;7.72;100.00;102799.13;5054082;28;20099;-75
2024/02/19 05:00:12;;;;;;;17.20;3.65;;;;;;;7.69;100.00;102796.63;5054154;28;20064;-75
2024/02/19 05:02:38;;;;;;;18.08;3.40;;;;;;;7.68;100.00;102802.84;5053776;28;20028;-76
2024/02/19 05:05:03;;;;;;;14.43;3.22;;;;;;;7.66;100.00;102804.72;5053884;28;20483;-75
2024/02/19 05:07:29;;;;;;;21.65;4.10;;;;;;;7.67;100.00;102801.09;5036246;28;20040;-76
2024/02/19 05:09:55;;;;;;;16.73;3.70;;;;;;;7.68;100.00;102808.13;5053235;28;20041;-76
2024/02/19 05:12:20;;;;;;;15.57;3.55;;;;;;;7.70;100.00;102811.59;5060392;28;20060;-75
2024/02/19 05:14:45;;;;;;;16.20;3.30;;;;;;;7.70;100.00;102814.25;5047266;28;20036;-77
2024/02/19 05:17:11;;;;;;;19.15;3.95;;;;;;;7.71;100.00;102804.50;5065733;28;20043;-75
2024/02/19 05:19:36;;;;;;;12.77;3.75;;;;;;;7.69;100.00;102809.00;5067964;28;20056;-75
2024/02/19 05:22:01;;;;;;;17.65;3.50;;;;;;;7.68;100.00;102807.28;5068359;28;20028;-75
2024/02/19 05:24:27;;;;;;;16.05;3.17;;;;;;;7.67;100.00;102801.09;5065161;28;20131;-76
2024/02/19 05:26:52;;;;;;;11.63;3.15;;;;;;;7.67;100.00;102794.97;5060865;28;20044;-74
2024/02/19 05:29:17;;;;;;;22.02;4.05;;;;;;;7.64;100.00;102795.09;5054713;28;20037;-76
2024/02/19 05:31:43;;;;;;;15.88;3.47;;;;;;;7.65;100.00;102802.97;5054594;28;20035;-76
2024/02/19 05:34:08;;;;;;;17.88;3.95;;;;;;;7.63;100.00;102801.31;5051943;28;20060;-75
2024/02/19 05:36:34;;;;;;;17.85;3.30;;;;;;;7.62;100.00;102802.28;5052264;28;20057;-76
2024/02/19 05:39:00;;;;;;;19.25;4.18;;;;;;;7.57;100.00;102800.69;5053249;28;20093;-74
2024/02/19 05:41:26;;;;;;;15.73;3.33;;;;;;;7.55;100.00;102801.69;5052090;28;20471;-76
2024/02/19 05:43:52;;;;;;;15.48;3.13;;;;;;;7.54;100.00;102800.84;5053241;28;20534;-76
2024/02/19 05:46:19;;;;;;;23.40;4.20;;;;;;;7.51;100.00;102800.09;5053624;28;20033;-77
2024/02/19 05:48:44;;;;;;;18.17;3.83;;;;;;;7.49;100.00;102789.56;5053289;28;20459;-76
2024/02/19 05:51:11;;;;;;;24.52;3.85;;;;;;;7.47;100.00;102790.59;5053401;28;20033;-75
2024/02/19 05:53:37;;;;;;;19.92;4.20;;;;;;;7.48;100.00;102789.66;5053363;28;20116;-75
2024/02/19 05:56:05;;;;;;;18.45;3.33;;;;;;;7.47;100.00;102796.75;5052630;28;20124;-75
2024/02/19 05:58:31;;;;;;;21.05;3.80;;;;;;;7.43;100.00;102787.22;5053221;28;20108;-75
2024/02/19 06:00:57;;;;;;;12.15;3.28;;;;;;;7.40;100.00;102782.94;5052920;28;20117;-74
2024/02/19 06:03:24;;;;;;;19.13;3.75;;;;;;;7.39;100.00;102783.03;5052610;28;20033;-75
2024/02/19 06:05:50;;;;;;;23.83;4.25;;;;;;;7.36;100.00;102778.72;5052710;28;20032;-76
2024/02/19 06:08:16;;;;;;;23.98;3.90;;;;;;;7.36;100.00;102777.84;5051636;28;20064;-77
2024/02/19 06:10:45;;;;;;;17.40;3.42;;;;;;;7.33;100.00;102786.81;5053693;28;20033;-76
2024/02/19 06:13:14;;;;;;;22.95;3.47;;;;;;;7.32;100.00;102790.38;5053198;28;20037;-78
2024/02/19 06:15:40;;;;;;;14.32;3.50;;;;;;;7.33;100.00;102801.81;5052887;28;20124;-75
2024/02/19 06:18:05;;;;;;;22.10;4.00;;;;;;;7.32;100.00;102800.13;5052754;28;20083;-75
2024/02/19 06:20:32;;;;;;;22.33;3.88;;;;;;;7.31;100.00;102807.19;5052741;28;20037;-76
2024/02/19 06:22:57;;;;;;;25.25;3.63;;;;;;;7.32;100.00;102800.97;5053378;28;20039;-75
2024/02/19 06:25:22;;;;;;;18.50;3.40;;;;;;;7.34;100.00;102788.50;5052696;28;20029;-76
2024/02/19 06:27:48;;;;;;;17.55;3.83;;;;;;;7.35;100.00;102795.53;5051468;28;20037;-77
2024/02/19 06:30:13;;;;;;;16.63;3.28;;;;;;;7.36;100.00;102796.38;5052631;28;20033;-76
2024/02/19 06:32:39;;;;;;;21.10;4.00;;;;;;;7.32;100.00;102787.72;5052455;28;20029;-76
2024/02/19 06:35:04;;;;;;;20.08;3.90;;;;;;;7.32;100.00;102794.81;5055878;28;20498;-77
2024/02/19 06:37:30;;;;;;;26.30;4.07;;;;;;;7.31;100.00;102785.16;5055306;28;20048;-74
2024/02/19 06:39:55;;;;;;;15.48;3.35;;;;;;;7.30;100.00;102779.00;5055158;28;20037;-75
2024/02/19 06:42:21;;;;;;;22.00;4.65;;;;;;;7.30;100.00;102783.41;5056287;28;20154;-75
2024/02/19 06:44:46;;;;;;;24.13;4.38;;;;;;;7.29;100.00;102787.88;5038442;28;20178;-76
2024/02/19 06:47:13;;;;;;;22.90;3.83;;;;;;;7.29;100.00;102789.66;5056456;28;20102;-75
2024/02/19 06:49:38;;;;;;;16.63;3.92;;;;;;;7.32;100.00;102794.81;5056080;28;20039;-76
2024/02/19 06:52:04;;;;;;;22.48;3.85;;;;;;;7.32;100.00;102794.81;5055936;28;20029;-75
2024/02/19 06:54:29;;;;;;;22.83;4.40;;;;;;;7.30;100.00;102792.25;5055819;28;20502;-75
2024/02/19 06:56:54;;;;;;;18.85;3.92;;;;;;;7.29;100.00;102793.16;5054995;28;20037;-77
2024/02/19 06:59:20;;;;;;;28.13;4.28;;;;;;;7.28;100.00;102788.78;5056284;28;20041;-78
2024/02/19 07:01:45;;;;;;;24.42;5.03;;;;;;;7.27;100.00;102779.13;5056514;28;20044;-76
2024/02/19 07:04:13;;;;;;;16.02;3.88;;;;;;;7.22;100.00;102773.19;5056027;28;20041;-74
2024/02/19 07:06:39;;;;;;;15.27;4.25;;;;;;;7.17;100.00;102773.38;5054956;28;20119;-76
2024/02/19 07:09:05;;;;;;;18.30;3.97;;;;;;;7.10;100.00;102771.09;5056329;28;20093;-76
2024/02/19 07:11:30;;;;;;;19.05;4.40;;;;;;;7.03;100.00;102783.72;5054796;28;20068;-77
2024/02/19 07:13:55;;;;;;;23.45;5.30;;;;;;;6.97;100.00;102784.88;5055948;28;20029;-75
2024/02/19 07:16:24;;;;;;;22.25;4.88;;;;;;;6.99;100.00;102787.47;5055937;28;20434;-76
2024/02/19 07:18:50;;;;;;;24.95;5.30;;;;;;;7.02;100.00;102780.22;5055929;28;20028;-75
2024/02/19 07:21:16;;;;;;;24.48;6.30;;;;;;;7.07;100.00;102770.28;5056134;28;20502;-76
2024/02/19 07:23:41;;;;;;;22.67;5.05;;;;;;;7.12;100.00;102766.56;5055533;28;20037;-76
2024/02/19 07:26:07;;;;;;;17.50;4.50;;;;;;;7.14;100.00;102767.38;5055728;28;20459;-76
2024/02/19 07:28:32;;;;;;;15.25;4.72;;;;;;;7.20;100.00;102769.75;5056225;28;20037;-76
2024/02/19 07:30:57;;;;;;;19.58;4.82;;;;;;;7.29;100.00;102771.97;5055393;28;20061;-76
2024/02/19 07:33:23;;;;;;;18.80;4.50;;;;;;;7.37;100.00;102785.72;5055817;28;20099;-76
2024/02/19 07:35:50;;;;;;;19.98;4.55;;;;;;;7.45;100.00;102785.38;5055656;28;20095;-75
2024/02/19 07:38:15;;;;;;;19.70;4.38;;;;;;;7.49;100.00;102786.09;5055539;28;20470;-75
2024/02/19 07:40:40;;;;;;;16.55;4.07;;;;;;;7.53;100.00;102785.88;5055411;28;20052;-75
2024/02/19 07:43:06;;;;;;;20.40;4.20;;;;;;;7.57;100.00;102786.59;5054254;28;20040;-76
2024/02/19 07:45:31;;;;;;;20.17;4.20;;;;;;;7.62;100.00;102784.56;5055280;28;20075;-75
2024/02/19 07:47:57;;;;;;;22.90;4.90;;;;;;;7.66;100.00;102796.75;5055677;28;20028;-76
2024/02/19 07:50:22;;;;;;;22.98;4.65;;;;;;;7.70;100.00;102802.75;5055282;28;20131;-75
2024/02/19 07:52:47;;;;;;;18.85;4.68;;;;;;;7.75;100.00;102804.28;5055486;28;20041;-76
2024/02/19 07:55:13;;;;;;;17.45;4.20;;;;;;;7.79;100.00;102812.06;5055114;28;20108;-76
2024/02/19 07:57:38;;;;;;;24.40;4.63;;;;;;;7.87;100.00;102818.72;5054737;28;20418;-76
2024/02/19 08:00:05;;;;;;;19.75;4.22;;;;;;;7.92;100.00;102823.81;5053885;28;20107;-77
2024/02/19 08:02:30;;;;;;;18.75;4.53;;;;;;;8.00;100.00;102823.44;5055350;28;20029;-78
2024/02/19 08:04:56;;;;;;;15.48;3.67;;;;;;;8.07;100.00;102817.75;5055595;28;20528;-77
2024/02/19 08:07:21;;;;;;;18.10;4.10;;;;;;;8.11;100.00;102827.28;5055298;28;20086;-78
2024/02/19 08:09:47;;;;;;;24.02;4.32;;;;;;;8.14;100.00;102833.41;5055232;28;20131;-79
2024/02/19 08:12:12;;;;;;;18.10;3.67;;;;;;;8.16;100.00;102827.06;5055583;28;20024;-77
2024/02/19 08:14:37;;;;;;;21.13;4.40;;;;;;;8.14;100.00;102830.75;5054541;28;20394;-76
2024/02/19 08:17:03;;;;;;;16.17;4.30;;;;;;;8.16;100.00;102831.50;5053644;28;20033;-77
2024/02/19 08:19:28;;;;;;;24.02;4.28;;;;;;;8.17;100.00;102830.59;5055481;28;20037;-77
2024/02/19 08:21:57;;;;;;;20.38;4.40;;;;;;;8.20;100.00;102833.09;5055274;28;20249;-76
2024/02/19 08:24:23;;;;;;;19.80;4.20;;;;;;;8.20;100.00;102833.94;5054295;28;20486;-78
2024/02/19 08:26:48;;;;;;;14.98;3.35;;;;;;;8.23;100.00;102841.75;5054241;28;20037;-76
2024/02/19 08:29:14;;;;;;;18.77;3.95;;;;;;;8.26;100.00;102832.78;5052737;28;20396;-76
2024/02/19 08:31:40;;;;;;;16.30;3.92;;;;;;;8.29;100.00;102830.84;5054256;28;20437;-76
2024/02/19 08:34:05;;;;;;;26.75;3.97;;;;;;;8.28;100.00;102822.94;5054200;28;20536;-78
2024/02/19 08:36:32;;;;;;;17.10;4.72;;;;;;;8.34;100.00;102832.41;5053825;28;20167;-78
2024/02/19 08:38:58;;;;;;;17.88;3.13;;;;;;;8.41;100.00;102824.06;5053895;28;20041;-78
2024/02/19 08:41:24;;;;;;;22.35;3.47;;;;;;;8.52;100.00;102828.84;5053858;28;20082;-77
2024/02/19 08:43:49;;;;;;;25.27;3.58;;;;;;;8.61;100.00;102825.78;5052804;28;20659;-77
2024/02/19 08:46:15;;;;;;;13.65;2.95;;;;;;;8.67;100.00;102827.22;5054435;28;20463;-77
2024/02/19 08:48:41;;;;;;;14.95;2.88;;;;;;;8.71;100.00;102814.69;5053044;28;20043;-76
2024/02/19 08:51:07;;;;;;;11.55;2.75;;;;;;;8.66;100.00;102817.56;5052655;28;20406;-77
2024/02/19 08:53:33;;;;;;;10.90;2.58;;;;;;;8.68;100.00;102821.00;5053786;28;20087;-77
2024/02/19 08:55:58;;;;;;;10.30;2.53;;;;;;;8.60;100.00;102809.94;5053810;28;20033;-76
2024/02/19 08:58:25;;;;;;;16.45;2.90;;;;;;;8.57;100.00;102810.94;5052591;28;20544;-78
2024/02/19 09:00:51;;;;;;;13.13;3.00;;;;;;;8.53;100.00;102809.34;5056129;28;20114;-77
2024/02/19 09:03:17;;;;;;;15.18;2.53;;;;;;;8.51;100.00;102810.38;5055358;28;20052;-76
2024/02/19 09:05:43;;;;;;;9.13;2.45;;;;;;;8.51;100.00;102799.75;5053849;28;20033;-78
2024/02/19 09:08:10;;;;;;;14.20;3.08;;;;;;;8.55;100.00;102799.50;5053689;28;20134;-76
2024/02/19 09:10:36;;;;;;;16.08;3.83;;;;;;;8.64;100.00;102801.72;5053221;28;20487;-74
2024/02/19 09:13:01;;;;;;;13.55;2.92;;;;;;;8.76;100.00;102791.41;5052399;28;20040;-75
2024/02/19 09:15:27;;;;;;;14.30;2.90;;;;;;;8.78;100.00;102789.53;5052311;28;20029;-76
2024/02/19 09:17:52;;;;;;;16.02;3.85;;;;;;;8.82;100.00;102777.81;5053416;28;20119;-76
2024/02/19 09:20:17;;;;;;;15.73;3.67;;;;;;;8.82;100.00;102788.41;5053325;28;20076;-75
2024/02/19 09:22:43;;;;;;;15.73;3.63;;;;;;;8.78;100.00;102785.06;5052390;28;20036;-75
2024/02/19 09:25:09;;;;;;;14.80;3.38;;;;;;;8.75;100.00;102782.59;5053503;28;20042;-75
2024/02/19 09:27:35;;;;;;;10.70;3.03;;;;;;;8.73;100.00;102778.28;5053616;28;20025;-76
2024/02/19 09:30:01;;;;;;;13.30;2.97;;;;;;;8.71;100.00;102777.53;5053327;28;20045;-75
2024/02/19 09:32:27;;;;;;;13.05;3.03;;;;;;;8.72;100.00;102773.91;5054082;28;20075;-75
2024/02/19 09:34:52;;;;;;;14.55;3.08;;;;;;;8.71;100.00;102773.06;5053080;28;20041;-75
2024/02/19 09:37:17;;;;;;;13.63;3.00;;;;;;;8.72;100.00;102769.47;5053410;28;20033;-74
2024/02/19 09:39:48;;;;;;;16.38;2.95;;;;;;;8.83;100.00;102771.56;5053643;28;20032;-78
2024/02/19 09:42:13;;;;;;;14.18;3.05;;;;;;;8.99;100.00;102759.19;5054256;28;20029;-80
2024/02/19 09:44:39;;;;;;;13.73;2.53;;;;;;;9.24;100.00;102765.84;5053663;28;20115;-75
2024/02/19 09:47:07;;;;;;;19.67;3.40;;;;;;;9.46;100.00;102762.00;5053681;28;20033;-76
2024/02/19 09:49:32;;;;;;;22.05;3.63;;;;;;;9.57;100.00;102754.31;5053443;28;20045;-76
2024/02/19 09:52:02;;;;;;;14.40;2.92;;;;;;;9.59;100.00;102757.72;5052020;28;20356;-75
2024/02/19 09:54:28;;;;;;;16.25;3.00;;;;;;;9.63;100.00;102756.63;5052808;28;20025;-74
2024/02/19 09:56:56;;;;;;;11.10;2.80;;;;;;;9.64;100.00;102758.34;5053028;28;20041;-75
2024/02/19 09:59:22;;;;;;;10.63;3.00;;;;;;;9.70;100.00;102749.13;5052659;28;20043;-75
2024/02/19 10:01:47;;;;;;;13.85;2.67;;;;;;;9.70;100.00;102733.19;5053148;28;20120;-75
2024/02/19 10:04:14;;;;;;;15.32;2.58;;;;;;;9.75;100.00;102744.44;5053381;28;20173;-76
2024/02/19 10:06:42;;;;;;;15.93;2.83;;;;;;;9.83;100.00;102744.84;5053391;28;20037;-75
2024/02/19 10:09:08;;;;;;;23.42;2.80;;;;;;;10.02;100.00;102746.47;5057125;28;20075;-78
2024/02/19 10:11:37;;;;;;;14.48;2.90;;;;;;;10.17;100.00;102745.56;5055885;28;20037;-76
2024/02/19 10:14:06;;;;;;;14.88;2.50;;;;;;;10.12;100.00;102741.44;5057731;28;20040;-76
2024/02/19 10:16:31;;;;;;;12.82;2.53;;;;;;;10.16;100.00;102746.50;5056976;28;20036;-76
2024/02/19 10:19:07;;;;;;;10.18;2.10;;;;;;;10.13;100.00;102737.84;5057315;28;20037;-75
2024/02/19 10:21:33;;;;;;;12.85;3.00;;;;;;;10.10;100.00;102743.34;5057180;28;20126;-76
2024/02/19 10:23:58;;;;;;;7.40;2.45;;;;;;;10.04;100.00;102731.25;5056812;28;20037;-74
2024/02/19 10:26:23;;;;;;;16.85;2.25;;;;;;;10.15;100.00;102730.63;5057534;28;20041;-73
2024/02/19 10:28:57;;;;;;;9.82;2.22;;;;;;;10.21;100.00;102730.25;5056697;28;20044;-76
2024/02/19 10:31:23;;;;;;;17.45;3.75;;;;;;;10.29;100.00;102730.69;5055233;28;20060;-76
2024/02/19 10:33:48;;;;;;;10.25;2.20;;;;;;;10.31;100.00;102722.59;5056940;28;20498;-75
2024/02/19 10:36:19;;;;;;;12.63;2.65;;;;;;;10.31;100.00;102727.94;5056709;28;20041;-73
2024/02/19 10:38:45;;;;;;;15.25;2.30;;;;;;;10.16;100.00;102733.19;5056851;28;20040;-75
2024/02/19 10:41:10;;;;;;;8.73;2.63;;;;;;;10.11;100.00;102731.78;5056962;28;20041;-75
2024/02/19 10:43:36;;;;;;;9.43;2.15;;;;;;;10.05;100.00;102733.00;5056535;28;20029;-75
2024/02/19 10:46:03;;;;;;;9.00;2.13;;;;;;;9.93;100.00;102725.69;5056641;28;20036;-75
2024/02/19 10:48:29;;;;;;;10.75;2.05;;;;;;;10.04;100.00;102732.09;5056868;28;20029;-74
2024/02/19 10:50:54;;;;;;;9.50;2.15;;;;;;;10.08;100.00;102724.81;5056348;28;20032;-76
2024/02/19 10:53:21;;;;;;;6.65;2.00;;;;;;;10.05;100.00;102739.16;5056344;28;20067;-75
2024/02/19 10:55:46;;;;;;;11.27;2.67;;;;;;;10.11;100.00;102745.91;5055032;28;20029;-75
2024/02/19 10:58:16;;;;;;;7.05;2.10;;;;;;;9.94;100.00;102738.94;5056218;28;20086;-74
2024/02/19 11:00:43;;;;;;;9.10;2.45;;;;;;;9.78;100.00;102728.31;5055645;28;20083;-76
2024/02/19 11:03:11;;;;;;;12.88;2.10;;;;;;;9.84;100.00;102725.31;5056144;28;20033;-76
2024/02/19 11:05:38;;;;;;;9.75;2.20;;;;;;;9.97;100.00;102719.25;5056192;28;20490;-75
2024/02/19 11:08:04;;;;;;;10.95;2.38;;;;;;;10.15;100.00;102720.00;5056351;28;20124;-74
2024/02/19 11:10:41;;;;;;;7.50;2.45;;;;;;;10.20;100.00;102715.28;5054765;28;20043;-74